createdAt,value
2019-02-16T00:02:19.275Z,2.20
2019-02-16T00:04:49.440Z,2.10
2019-02-16T00:07:19.633Z,2.10
2019-02-16T00:09:49.801Z,2.20
2019-02-16T00:12:19.978Z,2.20
2019-02-16T00:14:50.184Z,2.10
2019-02-16T00:17:20.272Z,2.00
2019-02-16T00:19:51.412Z,2.00
2019-02-16T00:22:21.594Z,1.90
2019-02-16T00:24:51.809Z,1.80
2019-02-16T00:27:22.029Z,1.80
2019-02-16T00:29:52.276Z,1.70
2019-02-16T00:32:22.406Z,1.60
2019-02-16T00:34:52.691Z,1.60
2019-02-16T00:37:22.994Z,1.50
2019-02-16T00:39:53.188Z,1.40
2019-02-16T00:42:23.281Z,1.40
2019-02-16T00:44:53.537Z,1.20
2019-02-16T00:47:23.662Z,0.90
2019-02-16T00:49:53.821Z,0.70
2019-02-16T00:52:24.088Z,0.60
2019-02-16T00:54:54.185Z,0.60
2019-02-16T00:57:24.410Z,0.60
2019-02-16T00:59:54.660Z,0.60
2019-02-16T01:02:24.788Z,0.70
2019-02-16T01:04:55.006Z,0.90
2019-02-16T01:07:25.208Z,0.90
2019-02-16T01:09:55.395Z,0.90
2019-02-16T01:12:25.725Z,0.90
2019-02-16T01:14:55.938Z,0.90
2019-02-16T01:17:26.147Z,0.80
2019-02-16T01:19:56.358Z,0.80
2019-02-16T01:22:26.774Z,0.80
2019-02-16T01:24:56.854Z,0.80
2019-02-16T01:27:27.029Z,0.60
2019-02-16T01:29:57.271Z,0.60
2019-02-16T01:32:27.420Z,0.50
2019-02-16T01:34:57.607Z,0.40
2019-02-16T01:37:27.874Z,0.30
2019-02-16T01:39:58.083Z,0.20
2019-02-16T01:42:28.233Z,0.30
2019-02-16T01:44:58.434Z,0.40
2019-02-16T01:47:28.573Z,0.50
2019-02-16T01:49:58.764Z,0.60
2019-02-16T01:52:29.004Z,0.60
2019-02-16T01:54:59.241Z,0.70
2019-02-16T01:57:29.425Z,0.80
2019-02-16T01:59:59.664Z,1.00
2019-02-16T02:02:29.917Z,1.00
2019-02-16T02:05:00.073Z,1.10
2019-02-16T02:07:30.332Z,1.00
2019-02-16T02:10:00.600Z,0.90
2019-02-16T02:12:30.771Z,0.70
2019-02-16T02:15:01.182Z,0.20
2019-02-16T02:17:31.333Z,0.10
2019-02-16T02:20:01.388Z,0.00
2019-02-16T02:22:31.620Z,0.00
2019-02-16T02:25:02.572Z,-0.10
2019-02-16T02:27:32.702Z,-0.20
2019-02-16T02:30:02.954Z,-0.20
2019-02-16T02:32:33.204Z,-0.10
2019-02-16T02:35:03.404Z,0.00
2019-02-16T02:37:33.643Z,0.10
2019-02-16T02:40:03.864Z,0.10
2019-02-16T02:42:34.020Z,0.10
2019-02-16T02:45:04.209Z,0.10
2019-02-16T02:47:34.493Z,0.10
2019-02-16T02:50:04.905Z,0.10
2019-02-16T02:52:35.144Z,0.20
2019-02-16T02:55:05.790Z,0.10
2019-02-16T02:57:35.960Z,0.10
2019-02-16T03:00:07.005Z,0.10
2019-02-16T03:02:37.177Z,0.20
2019-02-16T03:05:08.396Z,0.20
2019-02-16T03:07:38.723Z,0.20
2019-02-16T03:10:08.967Z,0.30
2019-02-16T03:12:39.040Z,0.30
2019-02-16T03:15:09.428Z,0.30
2019-02-16T03:17:39.649Z,0.20
2019-02-16T03:20:09.803Z,0.20
2019-02-16T03:23:25.827Z,0.10
2019-02-16T03:26:40.899Z,0.10
2019-02-16T03:29:35.182Z,0.40
2019-02-16T03:32:26.611Z,0.60
2019-02-16T03:35:13.411Z,0.80
2019-02-16T03:38:37.721Z,0.80
2019-02-16T03:41:07.901Z,0.90
2019-02-16T03:43:38.166Z,0.90
2019-02-16T03:46:08.315Z,0.90
2019-02-16T03:48:38.583Z,0.90
2019-02-16T03:51:08.841Z,0.90
2019-02-16T03:53:38.991Z,0.80
2019-02-16T03:56:09.192Z,0.70
2019-02-16T03:58:39.405Z,0.60
2019-02-16T04:01:09.613Z,0.60
2019-02-16T04:03:39.842Z,0.60
2019-02-16T04:06:10.015Z,0.70
2019-02-16T04:08:40.172Z,0.80
2019-02-16T04:11:10.470Z,0.80
2019-02-16T04:13:40.557Z,0.80
2019-02-16T04:16:10.742Z,0.80
2019-02-16T04:18:40.964Z,0.80
2019-02-16T04:21:11.125Z,0.90
2019-02-16T04:23:41.312Z,0.90
2019-02-16T04:26:11.576Z,0.90
2019-02-16T04:28:42.808Z,1.00
2019-02-16T04:31:12.995Z,1.10
2019-02-16T04:33:43.194Z,1.30
2019-02-16T04:36:13.404Z,1.40
2019-02-16T04:38:43.641Z,1.40
2019-02-16T04:41:13.861Z,1.40
2019-02-16T04:43:44.017Z,1.40
2019-02-16T04:46:14.220Z,1.30
2019-02-16T04:48:44.505Z,1.40
2019-02-16T04:51:14.578Z,1.40
2019-02-16T04:53:44.765Z,1.40
2019-02-16T04:56:15.050Z,1.30
2019-02-16T04:58:45.142Z,1.30
2019-02-16T05:01:15.352Z,1.10
2019-02-16T05:03:45.614Z,1.10
2019-02-16T05:06:15.642Z,1.00
2019-02-16T05:08:45.865Z,0.90
2019-02-16T05:11:16.165Z,0.90
2019-02-16T05:13:46.190Z,0.90
2019-02-16T05:16:16.259Z,0.80
2019-02-16T05:18:46.900Z,0.70
2019-02-16T05:21:17.320Z,0.70
2019-02-16T05:23:47.479Z,0.60
2019-02-16T05:26:17.638Z,0.70
2019-02-16T05:28:47.761Z,0.80
2019-02-16T05:31:19.019Z,0.80
2019-02-16T05:33:49.285Z,0.90
2019-02-16T05:36:19.473Z,0.90
2019-02-16T05:38:49.661Z,1.00
2019-02-16T05:41:20.111Z,0.90
2019-02-16T05:43:50.335Z,0.90
2019-02-16T05:46:20.558Z,0.90
2019-02-16T05:48:50.778Z,1.00
2019-02-16T05:51:20.916Z,0.90
2019-02-16T05:53:51.545Z,0.90
2019-02-16T05:56:21.814Z,0.90
2019-02-16T05:58:52.134Z,1.00
2019-02-16T06:01:22.274Z,1.00
2019-02-16T06:03:52.564Z,0.90
2019-02-16T06:06:22.837Z,0.80
2019-02-16T06:08:53.005Z,0.70
2019-02-16T06:11:23.234Z,0.60
2019-02-16T06:13:53.482Z,0.60
2019-02-16T06:16:23.637Z,0.60
2019-02-16T06:18:53.743Z,0.70
2019-02-16T06:21:23.949Z,0.60
2019-02-16T06:23:54.244Z,0.60
2019-02-16T06:26:24.487Z,0.60
2019-02-16T06:28:54.714Z,0.60
2019-02-16T06:31:24.930Z,0.60
2019-02-16T06:33:56.130Z,0.60
2019-02-16T06:36:33.021Z,0.50
2019-02-16T06:39:04.860Z,0.60
2019-02-16T06:41:34.881Z,0.60
2019-02-16T06:44:04.965Z,0.60
2019-02-16T06:46:35.247Z,0.60
2019-02-16T06:49:05.419Z,0.70
2019-02-16T06:51:35.585Z,0.70
2019-02-16T06:54:05.891Z,0.80
2019-02-16T06:56:45.801Z,0.90
2019-02-16T06:59:16.009Z,1.00
2019-02-16T07:01:46.156Z,1.10
2019-02-16T07:04:16.268Z,1.10
2019-02-16T07:06:46.676Z,1.10
2019-02-16T07:09:17.067Z,1.20
2019-02-16T07:11:47.141Z,1.20
2019-02-16T07:14:17.395Z,1.30
2019-02-16T07:16:53.485Z,1.30
2019-02-16T07:19:29.813Z,1.30
2019-02-16T07:21:59.918Z,1.40
2019-02-16T07:24:30.055Z,1.40
2019-02-16T07:27:00.286Z,1.40
2019-02-16T07:29:30.537Z,1.50
2019-02-16T07:32:00.802Z,1.50
2019-02-16T07:34:34.459Z,1.50
2019-02-16T07:37:05.444Z,1.50
2019-02-16T07:39:35.624Z,1.60
2019-02-16T07:42:05.921Z,1.70
2019-02-16T07:44:45.368Z,1.80
2019-02-16T07:47:40.665Z,1.90
2019-02-16T07:50:17.623Z,2.00
2019-02-16T07:53:05.375Z,2.10
2019-02-16T07:55:49.422Z,2.20
2019-02-16T07:58:33.571Z,2.30
2019-02-16T08:01:25.709Z,2.40
2019-02-16T08:04:02.155Z,2.40
2019-02-16T08:06:54.307Z,2.60
2019-02-16T08:09:39.784Z,2.60
2019-02-16T08:12:23.203Z,2.70
2019-02-16T08:15:11.870Z,2.80
2019-02-16T08:17:48.952Z,2.90
2019-02-16T08:20:28.800Z,3.10
2019-02-16T08:23:17.968Z,3.20
2019-02-16T08:26:19.213Z,3.30
2019-02-16T08:29:14.113Z,3.30
2019-02-16T08:32:18.536Z,3.40
2019-02-16T08:34:57.154Z,3.60
2019-02-16T08:37:46.912Z,3.70
2019-02-16T08:40:27.701Z,3.80
2019-02-16T08:43:07.855Z,4.00
2019-02-16T08:49:18.238Z,4.20
2019-02-16T08:51:53.865Z,4.40
2019-02-16T08:54:46.125Z,4.50
2019-02-16T08:57:35.185Z,4.60
2019-02-16T09:00:30.289Z,4.80
2019-02-16T09:03:09.625Z,4.90
2019-02-16T09:06:05.036Z,5.10
2019-02-16T09:09:03.428Z,5.20
2019-02-16T09:12:10.708Z,5.40
2019-02-16T09:14:59.874Z,5.60
2019-02-16T09:17:48.735Z,5.70
2019-02-16T09:20:37.080Z,5.70
2019-02-16T09:24:00.355Z,5.80
2019-02-16T09:26:48.896Z,5.90
2019-02-16T09:29:46.762Z,6.10
2019-02-16T09:32:38.795Z,6.30
2019-02-16T09:35:34.110Z,6.40
2019-02-16T09:38:28.901Z,6.50
2019-02-16T09:41:25.028Z,6.70
2019-02-16T09:44:20.749Z,7.00
2019-02-16T09:47:19.026Z,7.00
2019-02-16T09:50:01.332Z,7.20
2019-02-16T09:52:49.474Z,7.50
2019-02-16T09:55:57.069Z,7.60
2019-02-16T09:58:42.348Z,7.80
2019-02-16T10:01:31.304Z,7.90
2019-02-16T10:04:20.368Z,8.00
2019-02-16T10:07:07.998Z,8.20
2019-02-16T10:09:53.045Z,8.30
2019-02-16T10:12:38.944Z,8.50
2019-02-16T10:15:41.234Z,8.60
2019-02-16T10:18:33.567Z,8.60
2019-02-16T10:21:22.734Z,8.80
2019-02-16T10:24:17.339Z,8.80
2019-02-16T10:26:47.529Z,9.00
2019-02-16T10:29:36.711Z,9.00
2019-02-16T10:32:28.950Z,9.00
2019-02-16T10:35:24.257Z,9.10
2019-02-16T10:38:01.855Z,9.30
2019-02-16T10:41:06.072Z,9.40
2019-02-16T10:44:04.457Z,9.40
2019-02-16T10:46:59.453Z,9.70
2019-02-16T10:49:56.401Z,9.70
2019-02-16T10:52:46.079Z,9.80
2019-02-16T10:55:33.708Z,10.10
2019-02-16T10:58:13.250Z,10.00
2019-02-16T11:01:02.310Z,10.30
2019-02-16T11:03:50.249Z,10.40
2019-02-16T11:06:25.703Z,10.40
2019-02-16T11:09:01.958Z,10.50
2019-02-16T11:11:43.057Z,10.40
2019-02-16T11:14:29.533Z,10.70
2019-02-16T11:17:18.597Z,10.80
2019-02-16T11:20:06.327Z,10.70
2019-02-16T11:22:59.896Z,10.90
2019-02-16T11:26:07.698Z,11.00
2019-02-16T11:28:56.660Z,11.20
2019-02-16T11:31:45.828Z,11.30
2019-02-16T11:34:32.018Z,11.40
2019-02-16T11:37:08.213Z,11.50
2019-02-16T11:39:59.803Z,11.80
2019-02-16T11:42:50.899Z,12.20
2019-02-16T11:45:41.308Z,12.80
2019-02-16T11:48:42.249Z,12.90
2019-02-16T11:51:25.167Z,13.50
2019-02-16T11:54:05.426Z,13.50
2019-02-16T11:57:09.131Z,14.20
2019-02-16T11:59:59.612Z,14.20
2019-02-16T12:02:54.834Z,14.50
2019-02-16T12:05:31.098Z,14.20
2019-02-16T12:08:08.998Z,14.00
2019-02-16T12:11:01.231Z,14.70
2019-02-16T12:13:50.506Z,14.80
2019-02-16T12:16:36.699Z,14.80
2019-02-16T12:19:25.968Z,14.90
2019-02-16T12:22:15.240Z,15.20
2019-02-16T12:25:05.009Z,15.00
2019-02-16T12:28:04.726Z,15.70
2019-02-16T12:30:42.422Z,15.80
2019-02-16T12:33:36.809Z,14.40
2019-02-16T12:36:32.015Z,15.10
2019-02-16T12:39:23.948Z,16.10
2019-02-16T12:42:06.866Z,15.90
2019-02-16T12:45:14.259Z,16.40
2019-02-16T12:47:57.178Z,16.70
2019-02-16T12:50:52.282Z,16.80
2019-02-16T12:53:44.416Z,16.80
2019-02-16T12:56:20.769Z,16.80
2019-02-16T12:59:06.567Z,16.90
2019-02-16T13:02:13.962Z,16.70
2019-02-16T13:05:08.758Z,16.50
2019-02-16T13:07:57.832Z,17.20
2019-02-16T13:10:59.490Z,17.80
2019-02-16T13:13:42.398Z,17.90
2019-02-16T13:16:19.163Z,17.70
2019-02-16T13:19:07.116Z,17.00
2019-02-16T13:21:57.798Z,17.50
2019-02-16T13:24:46.977Z,18.00
2019-02-16T13:27:42.490Z,17.40
2019-02-16T13:30:47.118Z,17.80
2019-02-16T13:33:36.384Z,18.40
2019-02-16T13:36:18.592Z,19.00
2019-02-16T13:39:19.836Z,19.30
2019-02-16T13:41:58.908Z,19.40
2019-02-16T13:44:52.624Z,18.90
2019-02-16T13:47:37.277Z,18.60
2019-02-16T13:50:36.499Z,19.40
2019-02-16T13:53:16.241Z,19.20
2019-02-16T13:56:17.696Z,19.40
2019-02-16T13:59:06.758Z,19.40
2019-02-16T14:02:00.660Z,19.70
2019-02-16T14:04:39.146Z,18.70
2019-02-16T14:07:28.312Z,19.80
2019-02-16T14:10:17.272Z,20.30
2019-02-16T14:12:53.932Z,19.70
2019-02-16T14:15:49.154Z,19.90
2019-02-16T14:18:19.481Z,20.40
2019-02-16T14:20:49.697Z,20.50
2019-02-16T14:23:19.904Z,20.60
2019-02-16T14:25:50.723Z,20.80
2019-02-16T14:28:20.914Z,21.30
2019-02-16T14:30:51.086Z,21.70
2019-02-16T14:33:21.239Z,21.50
2019-02-16T14:35:51.492Z,21.70
2019-02-16T14:38:46.333Z,21.30
2019-02-16T14:41:16.532Z,20.90
2019-02-16T14:43:46.697Z,21.10
2019-02-16T14:46:16.980Z,21.70
2019-02-16T14:48:47.116Z,21.20
2019-02-16T14:51:18.281Z,21.10
2019-02-16T14:53:48.529Z,20.80
2019-02-16T14:56:18.803Z,21.00
2019-02-16T14:58:48.966Z,21.00
2019-02-16T15:01:19.164Z,21.60
2019-02-16T15:03:49.317Z,20.80
2019-02-16T15:06:19.519Z,20.60
2019-02-16T15:08:49.796Z,20.60
2019-02-16T15:11:20.052Z,21.00
2019-02-16T15:13:50.558Z,21.50
2019-02-16T15:16:20.758Z,21.40
2019-02-16T15:18:50.933Z,21.50
2019-02-16T15:21:21.102Z,22.00
2019-02-16T15:23:51.432Z,20.10
2019-02-16T15:26:28.423Z,19.90
2019-02-16T15:28:53.408Z,20.20
2019-02-16T15:31:23.571Z,20.00
2019-02-16T15:33:53.698Z,20.50
2019-02-16T15:36:24.394Z,20.80
2019-02-16T15:38:54.785Z,20.10
2019-02-16T15:41:24.913Z,20.30
2019-02-16T15:43:55.087Z,20.60
2019-02-16T15:46:25.383Z,20.20
2019-02-16T15:48:55.564Z,19.70
2019-02-16T15:51:25.708Z,19.60
2019-02-16T15:53:56.860Z,19.80
2019-02-16T15:56:26.965Z,19.40
2019-02-16T15:58:57.074Z,19.40
2019-02-16T16:01:27.794Z,19.50
2019-02-16T16:03:58.020Z,19.30
2019-02-16T16:06:28.324Z,19.00
2019-02-16T16:09:16.312Z,19.00
2019-02-16T16:12:05.483Z,18.90
2019-02-16T16:15:06.662Z,18.60
2019-02-16T16:17:48.601Z,18.20
2019-02-16T16:20:30.365Z,17.50
2019-02-16T16:23:26.441Z,17.00
2019-02-16T16:26:19.236Z,16.70
2019-02-16T16:29:07.435Z,16.10
2019-02-16T16:31:54.334Z,15.50
2019-02-16T16:34:53.239Z,14.90
2019-02-16T16:37:55.511Z,14.10
2019-02-16T16:40:44.574Z,13.20
2019-02-16T16:43:29.952Z,12.50
2019-02-16T16:46:26.286Z,12.00
2019-02-16T16:49:25.793Z,11.60
2019-02-16T16:52:34.208Z,11.20
2019-02-16T16:55:14.556Z,10.80
2019-02-16T16:58:04.348Z,10.30
2019-02-16T17:00:56.074Z,9.80
2019-02-16T17:03:54.248Z,9.50
2019-02-16T17:06:42.698Z,9.20
2019-02-16T17:09:44.967Z,8.90
2019-02-16T17:12:25.329Z,8.70
2019-02-16T17:15:26.474Z,8.50
2019-02-16T17:18:13.284Z,8.20
2019-02-16T17:21:09.413Z,8.10
2019-02-16T17:24:02.571Z,7.90
2019-02-16T17:27:07.812Z,7.70
2019-02-16T17:30:04.151Z,7.60
2019-02-16T17:32:57.610Z,7.40
2019-02-16T17:35:46.471Z,7.30
2019-02-16T17:38:31.744Z,7.20
2019-02-16T17:41:21.627Z,7.00
2019-02-16T17:44:03.300Z,7.00
2019-02-16T17:47:02.515Z,6.80
2019-02-16T17:49:57.931Z,6.50
2019-02-16T17:52:54.363Z,6.30
2019-02-16T17:55:47.931Z,6.20
2019-02-16T17:58:31.279Z,6.10
2019-02-16T18:01:20.119Z,6.00
2019-02-16T18:04:09.078Z,5.90
2019-02-16T18:07:02.544Z,5.80
2019-02-16T18:09:55.908Z,5.80
2019-02-16T18:12:55.108Z,5.70
2019-02-16T18:15:44.171Z,5.70
2019-02-16T18:18:34.462Z,5.70
2019-02-16T18:21:18.422Z,5.60
2019-02-16T18:24:07.323Z,5.50
2019-02-16T18:26:56.932Z,5.50
2019-02-16T18:29:54.706Z,5.40
2019-02-16T18:32:44.692Z,5.30
2019-02-16T18:35:47.271Z,5.30
2019-02-16T18:38:33.614Z,5.10
2019-02-16T18:41:24.171Z,4.80
2019-02-16T18:44:14.466Z,4.60
2019-02-16T18:47:10.609Z,4.30
2019-02-16T18:50:07.946Z,4.10
2019-02-16T18:52:58.238Z,4.00
2019-02-16T18:55:57.335Z,4.00
2019-02-16T18:58:53.567Z,3.90
2019-02-16T19:01:42.326Z,4.00
2019-02-16T19:04:38.533Z,4.00
2019-02-16T19:07:17.124Z,4.00
2019-02-16T19:10:06.131Z,3.90
2019-02-16T19:13:11.988Z,3.90
2019-02-16T19:15:50.184Z,3.80
2019-02-16T19:18:38.009Z,3.70
2019-02-16T19:21:16.956Z,3.60
2019-02-16T19:24:09.909Z,3.60
2019-02-16T19:27:16.643Z,3.60
2019-02-16T19:30:02.575Z,3.50
2019-02-16T19:32:52.355Z,3.40
2019-02-16T19:35:43.362Z,3.40
2019-02-16T19:38:29.901Z,3.40
2019-02-16T19:41:20.464Z,3.60
2019-02-16T19:44:01.030Z,4.10
2019-02-16T19:46:51.628Z,4.10
2019-02-16T19:49:40.337Z,4.00
2019-02-16T19:52:39.993Z,3.80
2019-02-16T19:55:32.017Z,3.70
2019-02-16T19:58:38.189Z,3.70
2019-02-16T20:01:19.453Z,3.70
2019-02-16T20:04:01.862Z,4.00
2019-02-16T20:06:48.951Z,4.30
2019-02-16T20:09:35.776Z,4.20
2019-02-16T20:12:29.477Z,4.70
2019-02-16T20:15:32.241Z,4.70
2019-02-16T20:18:21.834Z,4.60
2019-02-16T20:21:24.489Z,4.40
2019-02-16T20:24:13.886Z,4.30
2019-02-16T20:26:53.987Z,4.10
2019-02-16T20:29:46.892Z,4.00
2019-02-16T20:32:40.357Z,3.90
2019-02-16T20:35:30.444Z,4.30
2019-02-16T20:38:33.330Z,4.40
2019-02-16T20:41:26.283Z,4.40
2019-02-16T20:44:19.648Z,4.20
2019-02-16T20:47:02.342Z,4.10
2019-02-16T20:49:51.733Z,4.00
2019-02-16T20:52:41.820Z,3.80
2019-02-16T20:55:26.531Z,3.70
2019-02-16T20:58:22.711Z,3.60
2019-02-16T21:01:12.796Z,3.50
2019-02-16T21:03:58.674Z,3.50
2019-02-16T21:06:37.905Z,3.70
2019-02-16T21:09:21.538Z,3.60
2019-02-16T21:12:11.725Z,3.60
2019-02-16T21:14:53.217Z,4.00
2019-02-16T21:17:47.559Z,4.20
2019-02-16T21:20:43.743Z,4.10
2019-02-16T21:23:36.493Z,3.80
2019-02-16T21:26:37.201Z,3.50
2019-02-16T21:29:27.318Z,3.10
2019-02-16T21:32:17.505Z,2.80
2019-02-16T21:35:07.694Z,2.90
2019-02-16T21:38:00.342Z,3.00
2019-02-16T21:40:45.088Z,2.70
2019-02-16T21:43:40.515Z,2.50
2019-02-16T21:46:28.451Z,2.50
2019-02-16T21:49:16.491Z,2.50
2019-02-16T21:52:14.567Z,2.30
2019-02-16T21:55:03.626Z,2.20
2019-02-16T21:57:52.792Z,2.10
2019-02-16T22:00:45.029Z,2.20
2019-02-16T22:03:49.657Z,2.20
2019-02-16T22:06:44.659Z,2.30
2019-02-16T22:09:25.620Z,2.30
2019-02-16T22:12:14.796Z,2.20
2019-02-16T22:14:45.102Z,2.10
2019-02-16T22:17:15.262Z,2.00
2019-02-16T22:19:45.439Z,2.00
2019-02-16T22:22:15.668Z,1.90
2019-02-16T22:24:49.066Z,1.80
2019-02-16T22:27:19.329Z,1.80
2019-02-16T22:29:49.735Z,1.90
2019-02-16T22:32:20.170Z,1.80
2019-02-16T22:34:50.356Z,1.80
2019-02-16T22:37:20.642Z,1.80
2019-02-16T22:39:50.951Z,1.80
2019-02-16T22:42:22.254Z,1.90
2019-02-16T22:44:52.376Z,1.90
2019-02-16T22:47:22.488Z,1.80
2019-02-16T22:49:52.704Z,1.70
2019-02-16T22:52:22.931Z,1.60
2019-02-16T22:54:53.048Z,1.70
2019-02-16T22:57:23.364Z,1.70
2019-02-16T22:59:53.547Z,1.60
2019-02-16T23:02:23.677Z,1.50
2019-02-16T23:04:53.947Z,1.60
2019-02-16T23:07:24.170Z,1.60
2019-02-16T23:09:54.594Z,1.60
2019-02-16T23:12:25.065Z,1.50
2019-02-16T23:14:55.212Z,1.50
2019-02-16T23:17:25.382Z,1.50
2019-02-16T23:19:55.604Z,1.30
2019-02-16T23:22:25.781Z,1.20
2019-02-16T23:24:55.954Z,1.20
2019-02-16T23:27:26.233Z,1.20
2019-02-16T23:29:56.392Z,1.20
2019-02-16T23:32:26.629Z,1.30
2019-02-16T23:34:56.894Z,1.20
2019-02-16T23:37:27.130Z,1.20
2019-02-16T23:39:57.305Z,1.10
2019-02-16T23:42:27.575Z,1.00
2019-02-16T23:44:57.835Z,0.90
2019-02-16T23:47:28.015Z,0.90
2019-02-16T23:49:58.235Z,1.10
2019-02-16T23:52:28.493Z,1.10
2019-02-16T23:54:58.701Z,1.20
2019-02-16T23:57:28.930Z,1.10
2019-02-16T23:59:59.164Z,1.00
